createdAt,value
2023-02-06T00:00:17.121Z,97.78
2023-02-06T00:02:43.713Z,97.89
2023-02-06T00:05:10.205Z,97.64
2023-02-06T00:07:36.818Z,97.50
2023-02-06T00:10:04.652Z,97.63
2023-02-06T00:12:31.189Z,97.49
2023-02-06T00:14:57.717Z,97.54
2023-02-06T00:17:24.203Z,97.57
2023-02-06T00:19:50.787Z,97.53
2023-02-06T00:22:17.460Z,97.41
2023-02-06T00:24:43.952Z,97.34
2023-02-06T00:27:10.395Z,97.39
2023-02-06T00:29:37.284Z,97.73
2023-02-06T00:32:04.078Z,97.52
2023-02-06T00:34:30.622Z,97.36
2023-02-06T00:36:57.244Z,97.60
2023-02-06T00:39:23.752Z,97.53
2023-02-06T00:41:50.307Z,97.95
2023-02-06T00:44:16.831Z,98.19
2023-02-06T00:46:43.368Z,98.11
2023-02-06T00:49:09.838Z,98.15
2023-02-06T00:51:38.856Z,98.02
2023-02-06T00:54:08.936Z,98.15
2023-02-06T00:56:35.728Z,98.25
2023-02-06T00:59:02.318Z,98.34
2023-02-06T01:01:28.931Z,98.39
2023-02-06T01:03:55.546Z,98.35
2023-02-06T01:06:22.173Z,98.43
2023-02-06T01:08:48.751Z,98.45
2023-02-06T01:11:20.047Z,98.52
2023-02-06T01:13:46.770Z,98.35
2023-02-06T01:16:16.758Z,98.84
2023-02-06T01:18:43.947Z,98.60
2023-02-06T01:21:11.977Z,98.63
2023-02-06T01:23:39.566Z,98.46
2023-02-06T01:26:12.417Z,98.76
2023-02-06T01:28:41.994Z,98.68
2023-02-06T01:31:12.258Z,98.84
2023-02-06T01:33:39.717Z,98.72
2023-02-06T01:36:06.902Z,98.55
2023-02-06T01:38:33.812Z,98.61
2023-02-06T01:41:01.519Z,98.81
2023-02-06T01:43:32.151Z,98.71
2023-02-06T01:45:58.813Z,98.97
2023-02-06T01:48:34.175Z,98.91
2023-02-06T01:51:03.315Z,99.01
2023-02-06T01:53:31.171Z,99.01
2023-02-06T01:56:01.779Z,99.22
2023-02-06T01:58:32.031Z,99.45
2023-02-06T02:01:00.249Z,99.35
2023-02-06T02:03:28.867Z,99.37
2023-02-06T02:06:01.444Z,99.29
2023-02-06T02:08:36.074Z,99.58
2023-02-06T02:11:05.227Z,99.45
2023-02-06T02:13:36.459Z,99.61
2023-02-06T02:16:06.803Z,99.58
2023-02-06T02:18:51.762Z,99.56
2023-02-06T02:21:36.162Z,99.52
2023-02-06T02:24:59.511Z,99.51
2023-02-06T02:27:34.814Z,99.70
2023-02-06T02:30:01.198Z,99.58
2023-02-06T02:32:57.925Z,99.59
2023-02-06T02:35:51.558Z,99.60
2023-02-06T02:38:45.668Z,99.84
2023-02-06T02:41:38.049Z,99.44
2023-02-06T02:44:27.426Z,99.56
2023-02-06T02:46:56.932Z,99.41
2023-02-06T02:49:31.764Z,99.34
2023-02-06T02:51:59.423Z,99.75
2023-02-06T02:54:26.476Z,99.37
2023-02-06T02:56:56.943Z,99.64
2023-02-06T02:59:28.934Z,99.52
2023-02-06T03:02:03.856Z,99.45
2023-02-06T03:04:38.018Z,99.41
2023-02-06T03:07:31.947Z,99.50
2023-02-06T03:10:14.873Z,99.47
2023-02-06T03:12:49.083Z,99.47
2023-02-06T03:16:03.131Z,99.49
2023-02-06T03:18:44.643Z,99.40
2023-02-06T03:21:15.321Z,99.12
2023-02-06T03:23:44.659Z,99.29
2023-02-06T03:26:15.791Z,99.52
2023-02-06T03:28:47.555Z,99.21
2023-02-06T03:31:20.019Z,99.32
2023-02-06T03:33:55.095Z,99.33
2023-02-06T03:36:23.054Z,99.35
2023-02-06T03:38:51.411Z,99.39
2023-02-06T03:41:22.506Z,99.60
2023-02-06T03:43:51.006Z,99.53
2023-02-06T03:46:18.792Z,99.72
2023-02-06T03:48:52.484Z,99.82
2023-02-06T03:51:26.643Z,99.81
2023-02-06T03:53:57.809Z,99.74
2023-02-06T03:56:32.331Z,99.81
2023-02-06T03:58:58.966Z,99.74
2023-02-06T04:01:26.065Z,99.58
2023-02-06T04:03:52.871Z,99.67
2023-02-06T04:06:19.722Z,99.45
2023-02-06T04:08:46.434Z,99.62
2023-02-06T04:11:12.864Z,99.71
2023-02-06T04:13:39.341Z,99.47
2023-02-06T04:16:05.820Z,99.94
2023-02-06T04:18:32.412Z,99.89
2023-02-06T04:21:06.826Z,99.44
2023-02-06T04:23:33.975Z,99.92
2023-02-06T04:26:01.029Z,99.59
2023-02-06T04:28:27.580Z,99.64
2023-02-06T04:30:54.343Z,99.73
2023-02-06T04:33:21.279Z,100.00
2023-02-06T04:35:49.025Z,99.72
2023-02-06T04:38:15.827Z,99.93
2023-02-06T04:40:42.970Z,99.65
2023-02-06T04:43:09.518Z,99.89
2023-02-06T04:45:36.267Z,99.82
2023-02-06T04:48:02.994Z,99.74
2023-02-06T04:50:31.370Z,99.67
2023-02-06T04:52:58.337Z,100.00
2023-02-06T04:55:24.912Z,99.58
2023-02-06T04:57:51.750Z,99.90
2023-02-06T05:00:18.540Z,99.86
2023-02-06T05:02:45.521Z,99.84
2023-02-06T05:05:12.118Z,100.00
2023-02-06T05:07:38.658Z,99.66
2023-02-06T05:10:05.931Z,100.00
2023-02-06T05:12:32.396Z,99.70
2023-02-06T05:14:58.785Z,99.96
2023-02-06T05:17:25.279Z,100.00
2023-02-06T05:19:51.686Z,100.00
2023-02-06T05:22:18.317Z,100.00
2023-02-06T05:24:44.775Z,99.83
2023-02-06T05:27:11.278Z,100.00
2023-02-06T05:29:37.813Z,100.00
2023-02-06T05:32:04.375Z,99.90
2023-02-06T05:34:30.876Z,100.00
2023-02-06T05:36:57.392Z,100.00
2023-02-06T05:39:24.690Z,99.98
2023-02-06T05:41:51.262Z,99.86
2023-02-06T05:44:17.745Z,100.00
2023-02-06T05:46:44.269Z,100.00
2023-02-06T05:49:11.099Z,100.00
2023-02-06T05:51:37.623Z,100.00
2023-02-06T05:54:04.285Z,100.00
2023-02-06T05:56:30.913Z,100.00
2023-02-06T05:58:57.515Z,100.00
2023-02-06T06:01:24.176Z,100.00
2023-02-06T06:03:50.682Z,100.00
2023-02-06T06:06:17.321Z,100.00
2023-02-06T06:08:43.949Z,100.00
2023-02-06T06:11:10.466Z,100.00
2023-02-06T06:13:36.954Z,100.00
2023-02-06T06:16:03.547Z,100.00
2023-02-06T06:18:30.240Z,100.00
2023-02-06T06:20:56.919Z,100.00
2023-02-06T06:23:23.519Z,100.00
2023-02-06T06:25:50.516Z,100.00
2023-02-06T06:28:17.225Z,100.00
2023-02-06T06:30:43.839Z,100.00
2023-02-06T06:33:10.686Z,100.00
2023-02-06T06:35:37.589Z,100.00
2023-02-06T06:38:04.239Z,100.00
2023-02-06T06:40:30.854Z,100.00
2023-02-06T06:42:57.401Z,100.00
2023-02-06T06:45:23.955Z,100.00
2023-02-06T06:47:50.463Z,100.00
2023-02-06T06:50:17.158Z,100.00
2023-02-06T06:52:43.788Z,100.00
2023-02-06T06:55:11.009Z,100.00
2023-02-06T06:57:37.651Z,100.00
2023-02-06T07:00:05.574Z,100.00
2023-02-06T07:02:32.582Z,100.00
2023-02-06T07:05:00.490Z,99.88
2023-02-06T07:07:27.219Z,100.00
2023-02-06T07:09:53.907Z,99.98
2023-02-06T07:12:20.559Z,100.00
2023-02-06T07:14:47.144Z,100.00
2023-02-06T07:17:13.712Z,100.00
2023-02-06T07:19:40.371Z,100.00
2023-02-06T07:22:07.111Z,100.00
2023-02-06T07:24:33.755Z,100.00
2023-02-06T07:27:00.326Z,100.00
2023-02-06T07:29:27.180Z,100.00
2023-02-06T07:31:53.843Z,100.00
2023-02-06T07:34:20.467Z,100.00
2023-02-06T07:36:47.389Z,100.00
2023-02-06T07:39:14.054Z,100.00
2023-02-06T07:41:40.707Z,100.00
2023-02-06T07:44:07.557Z,100.00
2023-02-06T07:46:34.812Z,100.00
2023-02-06T07:49:01.418Z,100.00
2023-02-06T07:51:28.615Z,100.00
2023-02-06T07:53:55.386Z,100.00
2023-02-06T07:56:23.732Z,100.00
2023-02-06T07:58:52.010Z,100.00
2023-02-06T08:01:19.583Z,100.00
2023-02-06T08:03:48.811Z,100.00
2023-02-06T08:06:16.678Z,100.00
2023-02-06T08:08:44.032Z,100.00
2023-02-06T08:11:18.739Z,100.00
2023-02-06T08:13:46.518Z,100.00
2023-02-06T08:16:15.946Z,100.00
2023-02-06T08:18:42.861Z,100.00
2023-02-06T08:21:15.035Z,100.00
2023-02-06T08:23:42.490Z,100.00
2023-02-06T08:26:15.783Z,100.00
2023-02-06T08:28:44.212Z,100.00
2023-02-06T08:31:15.680Z,100.00
2023-02-06T08:33:42.360Z,100.00
2023-02-06T08:36:09.825Z,100.00
2023-02-06T08:38:37.030Z,100.00
2023-02-06T08:41:04.750Z,100.00
2023-02-06T08:43:33.194Z,100.00
2023-02-06T08:45:59.951Z,100.00
2023-02-06T08:48:26.918Z,100.00
2023-02-06T08:51:05.482Z,100.00
2023-02-06T08:53:32.446Z,100.00
2023-02-06T08:56:07.470Z,100.00
2023-02-06T08:58:34.687Z,100.00
2023-02-06T09:01:08.914Z,100.00
2023-02-06T09:03:36.382Z,100.00
2023-02-06T09:06:09.802Z,100.00
2023-02-06T09:08:38.212Z,100.00
2023-02-06T09:11:08.727Z,100.00
2023-02-06T09:13:35.621Z,100.00
2023-02-06T09:16:02.372Z,100.00
2023-02-06T09:18:29.171Z,100.00
2023-02-06T09:21:11.365Z,100.00
2023-02-06T09:23:43.744Z,100.00
2023-02-06T09:26:15.586Z,100.00
2023-02-06T09:28:42.159Z,100.00
2023-02-06T09:31:09.531Z,100.00
2023-02-06T09:33:38.077Z,100.00
2023-02-06T09:36:11.817Z,100.00
2023-02-06T09:38:40.483Z,100.00
2023-02-06T09:41:19.379Z,100.00
2023-02-06T09:43:54.814Z,100.00
2023-02-06T09:46:28.135Z,100.00
2023-02-06T09:48:57.428Z,100.00
2023-02-06T09:51:30.668Z,99.53
2023-02-06T09:54:35.794Z,99.73
2023-02-06T09:57:11.186Z,99.29
2023-02-06T09:59:44.984Z,99.00
2023-02-06T10:02:55.480Z,98.08
2023-02-06T10:05:49.142Z,98.19
2023-02-06T10:08:39.036Z,97.91
2023-02-06T10:11:18.676Z,97.65
2023-02-06T10:13:55.338Z,97.20
2023-02-06T10:16:55.950Z,97.12
2023-02-06T10:19:33.234Z,96.69
2023-02-06T10:22:05.472Z,96.48
2023-02-06T10:24:31.861Z,96.26
2023-02-06T10:27:01.332Z,96.41
2023-02-06T10:29:31.446Z,96.75
2023-02-06T10:32:09.870Z,96.44
2023-02-06T10:34:57.915Z,96.68
2023-02-06T10:37:32.596Z,96.69
2023-02-06T10:40:23.990Z,96.19
2023-02-06T10:42:58.059Z,96.21
2023-02-06T10:45:47.522Z,95.79
2023-02-06T10:48:32.835Z,95.76
2023-02-06T10:51:21.262Z,95.63
2023-02-06T10:53:54.637Z,95.06
2023-02-06T10:56:26.592Z,94.60
2023-02-06T10:58:58.608Z,94.86
2023-02-06T11:01:29.775Z,94.11
2023-02-06T11:04:03.693Z,93.82
2023-02-06T11:06:30.783Z,93.76
2023-02-06T11:08:58.199Z,93.62
2023-02-06T11:11:26.196Z,92.75
2023-02-06T11:14:00.999Z,92.29
2023-02-06T11:16:29.293Z,92.39
2023-02-06T11:18:59.626Z,92.23
2023-02-06T11:21:41.317Z,90.72
2023-02-06T11:24:16.590Z,89.61
2023-02-06T11:27:11.590Z,89.35
2023-02-06T11:29:45.755Z,89.06
2023-02-06T11:32:40.699Z,88.68
2023-02-06T11:35:33.594Z,88.05
2023-02-06T11:38:14.188Z,87.60
2023-02-06T11:40:41.014Z,86.51
2023-02-06T11:43:13.364Z,86.23
2023-02-06T11:45:41.237Z,85.90
2023-02-06T11:48:40.816Z,85.67
2023-02-06T11:51:09.146Z,83.31
2023-02-06T11:53:36.757Z,82.55
2023-02-06T11:56:07.148Z,83.00
2023-02-06T11:58:33.918Z,83.62
2023-02-06T12:01:07.017Z,83.28
2023-02-06T12:03:35.704Z,83.55
2023-02-06T12:06:16.148Z,80.95
2023-02-06T12:08:52.913Z,80.45
2023-02-06T12:11:28.244Z,81.11
2023-02-06T12:14:00.191Z,81.09
2023-02-06T12:16:28.064Z,82.00
2023-02-06T12:18:57.697Z,81.95
2023-02-06T12:21:55.280Z,81.63
2023-02-06T12:24:30.535Z,80.74
2023-02-06T12:27:01.045Z,79.83
2023-02-06T12:29:36.262Z,80.05
2023-02-06T12:32:09.908Z,78.78
2023-02-06T12:35:00.821Z,77.40
2023-02-06T12:37:40.666Z,77.08
2023-02-06T12:40:25.795Z,77.29
2023-02-06T12:43:03.834Z,78.08
2023-02-06T12:45:40.066Z,79.00
2023-02-06T12:48:19.961Z,79.13
2023-02-06T12:50:50.182Z,79.36
2023-02-06T12:53:24.376Z,78.29
2023-02-06T12:56:00.519Z,77.36
2023-02-06T12:58:33.711Z,76.64
2023-02-06T13:01:28.868Z,75.61
2023-02-06T13:04:02.403Z,76.32
2023-02-06T13:06:33.825Z,76.45
2023-02-06T13:09:08.677Z,76.79
2023-02-06T13:11:40.954Z,76.74
2023-02-06T13:14:21.684Z,76.42
2023-02-06T13:17:08.058Z,75.59
2023-02-06T13:19:37.563Z,74.43
2023-02-06T13:22:10.327Z,74.31
2023-02-06T13:24:48.667Z,74.80
2023-02-06T13:27:24.065Z,73.98
2023-02-06T13:29:53.836Z,73.84
2023-02-06T13:32:22.679Z,73.71
2023-02-06T13:34:49.186Z,74.34
2023-02-06T13:37:35.441Z,73.86
2023-02-06T13:40:30.684Z,73.57
2023-02-06T13:43:26.232Z,73.38
2023-02-06T13:46:00.210Z,73.64
2023-02-06T13:49:04.112Z,74.45
2023-02-06T13:51:46.231Z,75.02
2023-02-06T13:54:31.508Z,75.17
2023-02-06T13:57:28.218Z,75.88
2023-02-06T14:00:14.985Z,75.96
2023-02-06T14:02:48.689Z,74.66
2023-02-06T14:05:20.734Z,74.25
2023-02-06T14:07:53.521Z,73.28
2023-02-06T14:11:05.331Z,73.46
2023-02-06T14:13:44.381Z,74.50
2023-02-06T14:16:20.155Z,75.28
2023-02-06T14:18:55.853Z,75.30
2023-02-06T14:21:43.705Z,75.89
2023-02-06T14:24:46.745Z,76.30
2023-02-06T14:27:22.221Z,76.09
2023-02-06T14:30:12.743Z,75.78
2023-02-06T14:33:17.508Z,76.20
2023-02-06T14:36:08.632Z,75.65
2023-02-06T14:39:00.912Z,75.61
2023-02-06T14:41:32.308Z,75.58
2023-02-06T14:44:00.058Z,75.41
2023-02-06T14:46:27.574Z,75.29
2023-02-06T14:48:58.488Z,75.22
2023-02-06T14:51:39.423Z,75.92
2023-02-06T14:54:26.823Z,76.26
2023-02-06T14:56:58.774Z,76.43
2023-02-06T14:59:25.681Z,76.34
2023-02-06T15:01:54.175Z,76.32
2023-02-06T15:04:26.550Z,76.50
2023-02-06T15:07:04.343Z,76.04
2023-02-06T15:09:38.849Z,76.37
2023-02-06T15:12:21.285Z,76.67
2023-02-06T15:15:02.984Z,77.07
2023-02-06T15:17:31.235Z,77.38
2023-02-06T15:20:23.105Z,77.44
2023-02-06T15:22:50.760Z,77.83
2023-02-06T15:25:31.439Z,78.19
2023-02-06T15:28:03.755Z,78.50
2023-02-06T15:30:33.684Z,78.50
2023-02-06T15:33:01.159Z,78.90
2023-02-06T15:35:36.243Z,78.88
2023-02-06T15:38:07.604Z,78.51
2023-02-06T15:40:38.987Z,78.69
2023-02-06T15:43:06.188Z,78.69
2023-02-06T15:45:37.354Z,78.91
2023-02-06T15:48:33.866Z,78.96
2023-02-06T15:51:28.175Z,79.07
2023-02-06T15:54:19.048Z,78.82
2023-02-06T15:56:50.875Z,78.93
2023-02-06T15:59:21.834Z,78.76
2023-02-06T16:01:49.312Z,78.96
2023-02-06T16:04:22.057Z,79.14
2023-02-06T16:07:19.619Z,78.90
2023-02-06T16:10:06.065Z,79.00
2023-02-06T16:12:42.722Z,78.57
2023-02-06T16:15:32.471Z,79.15
2023-02-06T16:18:01.780Z,79.17
2023-02-06T16:20:42.227Z,79.26
2023-02-06T16:23:23.956Z,79.03
2023-02-06T16:26:07.368Z,79.12
2023-02-06T16:28:42.039Z,79.09
2023-02-06T16:31:14.488Z,79.29
2023-02-06T16:33:44.019Z,79.39
2023-02-06T16:36:16.514Z,79.57
2023-02-06T16:38:48.438Z,79.76
2023-02-06T16:41:33.622Z,80.41
2023-02-06T16:44:01.948Z,80.54
2023-02-06T16:46:29.814Z,80.34
2023-02-06T16:48:58.630Z,80.65
2023-02-06T16:51:27.978Z,81.18
2023-02-06T16:53:54.976Z,81.18
2023-02-06T16:56:21.930Z,81.31
2023-02-06T16:58:49.172Z,81.34
2023-02-06T17:01:25.655Z,81.47
2023-02-06T17:03:53.313Z,81.48
2023-02-06T17:06:28.742Z,81.61
2023-02-06T17:09:03.405Z,81.82
2023-02-06T17:11:31.615Z,81.76
2023-02-06T17:13:58.500Z,81.94
2023-02-06T17:16:27.108Z,81.79
2023-02-06T17:18:54.565Z,82.16
2023-02-06T17:21:23.207Z,81.97
2023-02-06T17:23:51.014Z,82.14
2023-02-06T17:26:23.097Z,82.27
2023-02-06T17:28:50.339Z,82.34
2023-02-06T17:31:19.020Z,82.94
2023-02-06T17:33:45.616Z,82.91
2023-02-06T17:36:29.292Z,83.09
2023-02-06T17:39:00.201Z,83.38
2023-02-06T17:41:27.659Z,83.82
2023-02-06T17:43:54.484Z,83.66
2023-02-06T17:46:21.195Z,84.03
2023-02-06T17:48:47.776Z,84.56
2023-02-06T17:51:14.412Z,84.55
2023-02-06T17:53:40.962Z,84.80
2023-02-06T17:56:12.029Z,85.07
2023-02-06T17:58:42.771Z,84.86
2023-02-06T18:01:22.258Z,85.22
2023-02-06T18:03:50.361Z,85.29
2023-02-06T18:06:18.350Z,85.84
2023-02-06T18:08:45.567Z,85.75
2023-02-06T18:11:18.453Z,86.20
2023-02-06T18:13:47.759Z,86.29
2023-02-06T18:16:19.574Z,86.52
2023-02-06T18:18:46.752Z,86.47
2023-02-06T18:21:13.586Z,86.82
2023-02-06T18:23:40.182Z,87.09
2023-02-06T18:26:09.147Z,87.19
2023-02-06T18:28:37.180Z,87.45
2023-02-06T18:31:04.411Z,87.49
2023-02-06T18:33:33.831Z,87.48
2023-02-06T18:36:04.803Z,87.61
2023-02-06T18:38:31.464Z,87.83
2023-02-06T18:41:03.552Z,88.04
2023-02-06T18:43:30.163Z,88.14
2023-02-06T18:45:57.216Z,88.54
2023-02-06T18:48:23.774Z,88.54
2023-02-06T18:50:50.374Z,88.39
2023-02-06T18:53:16.974Z,88.29
2023-02-06T18:55:44.039Z,88.78
2023-02-06T18:58:10.899Z,89.14
2023-02-06T19:00:40.288Z,89.10
2023-02-06T19:03:06.958Z,89.31
2023-02-06T19:05:36.508Z,88.93
2023-02-06T19:08:03.015Z,89.26
2023-02-06T19:10:29.637Z,89.04
2023-02-06T19:12:56.249Z,89.37
2023-02-06T19:15:22.748Z,89.37
2023-02-06T19:17:50.215Z,89.17
2023-02-06T19:20:16.827Z,89.47
2023-02-06T19:22:43.354Z,89.90
2023-02-06T19:25:13.993Z,90.22
2023-02-06T19:27:41.076Z,90.52
2023-02-06T19:30:08.499Z,90.80
2023-02-06T19:32:35.542Z,90.73
2023-02-06T19:35:03.356Z,90.72
2023-02-06T19:37:29.848Z,90.67
2023-02-06T19:39:56.473Z,91.05
2023-02-06T19:42:23.549Z,90.81
2023-02-06T19:44:54.840Z,90.84
2023-02-06T19:47:22.193Z,90.88
2023-02-06T19:49:55.954Z,90.84
2023-02-06T19:52:22.758Z,91.08
2023-02-06T19:54:49.379Z,91.09
2023-02-06T19:57:16.119Z,91.25
2023-02-06T19:59:42.717Z,91.25
2023-02-06T20:02:12.983Z,91.38
2023-02-06T20:04:39.849Z,91.11
2023-02-06T20:07:06.624Z,91.36
2023-02-06T20:09:33.274Z,91.23
2023-02-06T20:12:00.264Z,91.58
2023-02-06T20:14:27.065Z,91.17
2023-02-06T20:16:54.892Z,91.30
2023-02-06T20:19:24.784Z,91.41
2023-02-06T20:21:54.267Z,91.18
2023-02-06T20:24:23.563Z,91.04
2023-02-06T20:26:55.525Z,91.22
2023-02-06T20:29:25.722Z,91.37
2023-02-06T20:31:52.908Z,91.36
2023-02-06T20:34:21.778Z,91.36
2023-02-06T20:36:50.043Z,91.61
2023-02-06T20:39:17.502Z,91.35
2023-02-06T20:41:46.139Z,91.39
2023-02-06T20:44:14.062Z,91.64
2023-02-06T20:46:42.234Z,91.27
2023-02-06T20:49:15.253Z,91.86
2023-02-06T20:51:41.757Z,91.34
2023-02-06T20:54:11.469Z,91.91
2023-02-06T20:56:42.254Z,91.68
2023-02-06T20:59:13.770Z,91.72
2023-02-06T21:01:41.475Z,91.77
2023-02-06T21:04:11.286Z,91.63
2023-02-06T21:06:38.835Z,91.83
2023-02-06T21:09:07.273Z,92.09
2023-02-06T21:11:41.617Z,92.19
2023-02-06T21:14:08.668Z,92.09
2023-02-06T21:16:37.673Z,92.15
2023-02-06T21:19:07.900Z,92.26
2023-02-06T21:21:34.981Z,92.00
2023-02-06T21:24:01.586Z,92.20
2023-02-06T21:26:29.068Z,92.06
2023-02-06T21:28:55.825Z,91.96
2023-02-06T21:31:25.154Z,92.42
2023-02-06T21:33:52.527Z,92.31
2023-02-06T21:36:21.002Z,91.93
2023-02-06T21:38:47.786Z,92.22
2023-02-06T21:41:16.687Z,92.58
2023-02-06T21:43:43.324Z,92.14
2023-02-06T21:46:11.665Z,92.43
2023-02-06T21:48:38.970Z,92.68
2023-02-06T21:51:16.802Z,91.99
2023-02-06T21:53:44.900Z,92.38
2023-02-06T21:56:22.791Z,92.61
2023-02-06T21:58:49.942Z,92.46
2023-02-06T22:01:24.841Z,92.32
2023-02-06T22:03:52.177Z,92.60
2023-02-06T22:06:20.207Z,92.49
2023-02-06T22:08:51.663Z,92.41
2023-02-06T22:11:23.664Z,92.29
2023-02-06T22:13:51.501Z,92.30
2023-02-06T22:16:21.385Z,92.77
2023-02-06T22:18:48.945Z,93.12
2023-02-06T22:21:18.014Z,92.94
2023-02-06T22:23:46.433Z,92.76
2023-02-06T22:26:15.556Z,93.18
2023-02-06T22:28:42.746Z,92.97
2023-02-06T22:31:15.155Z,93.28
2023-02-06T22:33:42.285Z,93.58
2023-02-06T22:36:11.589Z,93.01
2023-02-06T22:38:38.855Z,93.27
2023-02-06T22:41:08.027Z,93.36
2023-02-06T22:43:36.409Z,92.96
2023-02-06T22:46:03.278Z,93.30
2023-02-06T22:48:29.940Z,93.42
2023-02-06T22:50:56.726Z,93.43
2023-02-06T22:53:29.724Z,93.50
2023-02-06T22:56:22.081Z,93.65
2023-02-06T22:58:49.408Z,93.41
2023-02-06T23:01:18.369Z,94.09
2023-02-06T23:03:45.268Z,94.19
2023-02-06T23:06:14.960Z,94.02
2023-02-06T23:08:43.145Z,93.73
2023-02-06T23:11:11.499Z,94.31
2023-02-06T23:13:39.225Z,94.43
2023-02-06T23:16:06.825Z,94.02
2023-02-06T23:18:33.966Z,94.14
2023-02-06T23:21:04.111Z,94.04
2023-02-06T23:23:31.487Z,94.20
2023-02-06T23:25:58.459Z,94.50
2023-02-06T23:28:26.144Z,94.62
2023-02-06T23:30:53.796Z,94.55
2023-02-06T23:33:20.649Z,94.61
2023-02-06T23:35:47.424Z,94.27
2023-02-06T23:38:13.951Z,94.63
2023-02-06T23:40:40.486Z,94.18
2023-02-06T23:43:07.052Z,94.44
2023-02-06T23:45:33.825Z,94.57
2023-02-06T23:48:00.381Z,94.41
2023-02-06T23:50:27.163Z,94.00
2023-02-06T23:52:54.029Z,94.75
2023-02-06T23:55:21.577Z,94.75
2023-02-06T23:57:48.083Z,94.05
